Dickens, Texas
Current Conditions -  °F | °C
As of 9:53 AM on Monday 26 Jan 2015 (Local Time) from KLBB Reporting Station
Few Clouds Few Clouds  
Wind Chill: 41°   Ceiling: Unl
Heat Index: 47°   Visibility: 10mi
Dew Point: 32°   Wind: 13mph
Humidity: 56%   Direction: 290°WNW
Pressure: 30.26"   Gusts: NA
Location:  33.62°N, 100.84°W
Report Text: KLBB 261553Z 29011KT 10SM FEW200 FEW300 08/00 A3026 RMK AO2 SLP241 T00830000
Loading
Personal Weather Stations






























Interactive Weather Map New forecast layout! Learn more

10-Day Weather Forecast

Advertisements
Track Severe Weather on mobile